sensor_id;sensor_type;location;lat;lon;timestamp;P1;durP1;ratioP1;P2;durP2;ratioP2
36709;SDS011;22694;51.040;3.684;2022-12-18T00:02:16;20.67;;;15.98;;
36709;SDS011;22694;51.040;3.684;2022-12-18T00:04:41;18.25;;;15.48;;
36709;SDS011;22694;51.040;3.684;2022-12-18T00:07:07;18.83;;;15.00;;
36709;SDS011;22694;51.040;3.684;2022-12-18T00:09:33;20.75;;;15.57;;
36709;SDS011;22694;51.040;3.684;2022-12-18T00:11:58;20.55;;;15.90;;
36709;SDS011;22694;51.040;3.684;2022-12-18T00:14:24;19.88;;;16.38;;
36709;SDS011;22694;51.040;3.684;2022-12-18T00:16:49;20.25;;;16.00;;
36709;SDS011;22694;51.040;3.684;2022-12-18T00:19:15;20.05;;;16.38;;
36709;SDS011;22694;51.040;3.684;2022-12-18T00:21:41;20.77;;;17.13;;
36709;SDS011;22694;51.040;3.684;2022-12-18T00:24:08;20.05;;;16.13;;
36709;SDS011;22694;51.040;3.684;2022-12-18T00:26:34;23.00;;;17.50;;
36709;SDS011;22694;51.040;3.684;2022-12-18T00:29:01;21.58;;;16.80;;
36709;SDS011;22694;51.040;3.684;2022-12-18T00:31:32;22.13;;;16.92;;
36709;SDS011;22694;51.040;3.684;2022-12-18T00:33:58;23.05;;;17.58;;
36709;SDS011;22694;51.040;3.684;2022-12-18T00:36:28;21.50;;;17.60;;
36709;SDS011;22694;51.040;3.684;2022-12-18T00:38:56;19.35;;;16.48;;
36709;SDS011;22694;51.040;3.684;2022-12-18T00:41:23;22.63;;;18.15;;
36709;SDS011;22694;51.040;3.684;2022-12-18T00:44:19;21.73;;;16.92;;
36709;SDS011;22694;51.040;3.684;2022-12-18T00:46:45;22.10;;;18.13;;
36709;SDS011;22694;51.040;3.684;2022-12-18T00:49:11;21.45;;;17.33;;
36709;SDS011;22694;51.040;3.684;2022-12-18T00:51:37;22.35;;;17.77;;
36709;SDS011;22694;51.040;3.684;2022-12-18T00:54:03;19.55;;;15.90;;
36709;SDS011;22694;51.040;3.684;2022-12-18T00:56:28;20.23;;;16.80;;
36709;SDS011;22694;51.040;3.684;2022-12-18T00:58:54;20.58;;;17.48;;
36709;SDS011;22694;51.040;3.684;2022-12-18T01:01:20;20.00;;;16.83;;
36709;SDS011;22694;51.040;3.684;2022-12-18T01:03:45;21.85;;;17.13;;
36709;SDS011;22694;51.040;3.684;2022-12-18T01:06:11;22.40;;;17.60;;
36709;SDS011;22694;51.040;3.684;2022-12-18T01:08:39;21.35;;;17.50;;
36709;SDS011;22694;51.040;3.684;2022-12-18T01:11:09;20.17;;;16.33;;
36709;SDS011;22694;51.040;3.684;2022-12-18T01:13:40;23.50;;;18.13;;
36709;SDS011;22694;51.040;3.684;2022-12-18T01:16:06;24.35;;;17.90;;
36709;SDS011;22694;51.040;3.684;2022-12-18T01:18:32;22.42;;;17.77;;
36709;SDS011;22694;51.040;3.684;2022-12-18T01:20:57;22.08;;;17.83;;
36709;SDS011;22694;51.040;3.684;2022-12-18T01:23:23;23.23;;;17.52;;
36709;SDS011;22694;51.040;3.684;2022-12-18T01:25:49;20.60;;;16.92;;
36709;SDS011;22694;51.040;3.684;2022-12-18T01:28:14;23.73;;;18.63;;
36709;SDS011;22694;51.040;3.684;2022-12-18T01:30:40;21.98;;;17.48;;
36709;SDS011;22694;51.040;3.684;2022-12-18T01:33:06;22.60;;;17.70;;
36709;SDS011;22694;51.040;3.684;2022-12-18T01:35:31;21.52;;;17.02;;
36709;SDS011;22694;51.040;3.684;2022-12-18T01:37:57;21.80;;;17.52;;
36709;SDS011;22694;51.040;3.684;2022-12-18T01:40:24;23.10;;;17.33;;
36709;SDS011;22694;51.040;3.684;2022-12-18T01:42:52;21.95;;;17.02;;
36709;SDS011;22694;51.040;3.684;2022-12-18T01:47:54;20.25;;;16.90;;
36709;SDS011;22694;51.040;3.684;2022-12-18T01:52:50;22.67;;;17.50;;
36709;SDS011;22694;51.040;3.684;2022-12-18T01:55:19;22.23;;;17.33;;
36709;SDS011;22694;51.040;3.684;2022-12-18T01:57:49;23.02;;;17.65;;
36709;SDS011;22694;51.040;3.684;2022-12-18T02:00:18;22.92;;;17.42;;
36709;SDS011;22694;51.040;3.684;2022-12-18T02:02:45;21.35;;;17.30;;
36709;SDS011;22694;51.040;3.684;2022-12-18T02:05:12;22.95;;;17.45;;
36709;SDS011;22694;51.040;3.684;2022-12-18T02:10:41;21.58;;;17.13;;
36709;SDS011;22694;51.040;3.684;2022-12-18T02:13:12;19.85;;;16.35;;
36709;SDS011;22694;51.040;3.684;2022-12-18T02:15:58;20.27;;;16.67;;
36709;SDS011;22694;51.040;3.684;2022-12-18T02:18:35;22.55;;;17.77;;
36709;SDS011;22694;51.040;3.684;2022-12-18T02:21:12;23.10;;;17.95;;
36709;SDS011;22694;51.040;3.684;2022-12-18T02:26:30;22.85;;;17.33;;
36709;SDS011;22694;51.040;3.684;2022-12-18T02:29:06;21.88;;;17.27;;
36709;SDS011;22694;51.040;3.684;2022-12-18T02:31:38;21.40;;;16.30;;
36709;SDS011;22694;51.040;3.684;2022-12-18T02:34:08;23.73;;;16.83;;
36709;SDS011;22694;51.040;3.684;2022-12-18T02:36:35;21.20;;;16.42;;
36709;SDS011;22694;51.040;3.684;2022-12-18T02:39:05;20.00;;;16.50;;
36709;SDS011;22694;51.040;3.684;2022-12-18T02:41:34;21.55;;;16.77;;
36709;SDS011;22694;51.040;3.684;2022-12-18T02:44:06;20.60;;;15.85;;
36709;SDS011;22694;51.040;3.684;2022-12-18T02:46:43;22.80;;;16.83;;
36709;SDS011;22694;51.040;3.684;2022-12-18T02:51:55;20.00;;;15.88;;
36709;SDS011;22694;51.040;3.684;2022-12-18T02:54:49;22.77;;;16.50;;
36709;SDS011;22694;51.040;3.684;2022-12-18T03:00:17;21.92;;;15.88;;
36709;SDS011;22694;51.040;3.684;2022-12-18T03:02:50;22.83;;;16.33;;
36709;SDS011;22694;51.040;3.684;2022-12-18T03:05:38;21.58;;;15.98;;
36709;SDS011;22694;51.040;3.684;2022-12-18T03:08:22;19.17;;;14.82;;
36709;SDS011;22694;51.040;3.684;2022-12-18T03:11:03;20.40;;;15.75;;
36709;SDS011;22694;51.040;3.684;2022-12-18T03:13:38;20.80;;;15.45;;
36709;SDS011;22694;51.040;3.684;2022-12-18T03:16:10;20.48;;;16.00;;
36709;SDS011;22694;51.040;3.684;2022-12-18T03:18:49;20.17;;;15.38;;
36709;SDS011;22694;51.040;3.684;2022-12-18T03:21:19;22.63;;;16.88;;
36709;SDS011;22694;51.040;3.684;2022-12-18T03:23:51;21.75;;;15.52;;
36709;SDS011;22694;51.040;3.684;2022-12-18T03:26:19;21.25;;;15.27;;
36709;SDS011;22694;51.040;3.684;2022-12-18T03:28:52;20.00;;;15.60;;
36709;SDS011;22694;51.040;3.684;2022-12-18T03:31:23;20.52;;;15.55;;
36709;SDS011;22694;51.040;3.684;2022-12-18T03:33:57;18.95;;;14.88;;
36709;SDS011;22694;51.040;3.684;2022-12-18T03:36:26;20.80;;;15.35;;
36709;SDS011;22694;51.040;3.684;2022-12-18T03:38:52;20.25;;;15.23;;
36709;SDS011;22694;51.040;3.684;2022-12-18T03:41:28;21.92;;;14.65;;
36709;SDS011;22694;51.040;3.684;2022-12-18T03:43:57;18.02;;;14.25;;
36709;SDS011;22694;51.040;3.684;2022-12-18T03:51:49;18.75;;;13.82;;
36709;SDS011;22694;51.040;3.684;2022-12-18T03:54:26;17.63;;;13.60;;
36709;SDS011;22694;51.040;3.684;2022-12-18T03:56:56;16.77;;;13.32;;
36709;SDS011;22694;51.040;3.684;2022-12-18T03:59:26;17.27;;;13.68;;
36709;SDS011;22694;51.040;3.684;2022-12-18T04:01:53;17.80;;;12.75;;
36709;SDS011;22694;51.040;3.684;2022-12-18T04:04:22;16.83;;;12.95;;
36709;SDS011;22694;51.040;3.684;2022-12-18T04:06:49;15.75;;;12.70;;
36709;SDS011;22694;51.040;3.684;2022-12-18T04:09:15;16.15;;;12.65;;
36709;SDS011;22694;51.040;3.684;2022-12-18T04:11:41;15.40;;;12.50;;
36709;SDS011;22694;51.040;3.684;2022-12-18T04:14:09;17.02;;;13.15;;
36709;SDS011;22694;51.040;3.684;2022-12-18T04:16:35;15.70;;;12.63;;
36709;SDS011;22694;51.040;3.684;2022-12-18T04:19:00;15.82;;;12.23;;
36709;SDS011;22694;51.040;3.684;2022-12-18T04:21:26;16.50;;;12.80;;
36709;SDS011;22694;51.040;3.684;2022-12-18T04:23:52;15.15;;;12.13;;
36709;SDS011;22694;51.040;3.684;2022-12-18T04:26:17;15.88;;;12.48;;
36709;SDS011;22694;51.040;3.684;2022-12-18T04:28:43;14.90;;;12.13;;
36709;SDS011;22694;51.040;3.684;2022-12-18T04:31:09;17.00;;;12.30;;
36709;SDS011;22694;51.040;3.684;2022-12-18T04:33:34;15.35;;;11.93;;
36709;SDS011;22694;51.040;3.684;2022-12-18T04:36:00;15.00;;;11.82;;
36709;SDS011;22694;51.040;3.684;2022-12-18T04:38:25;14.50;;;11.27;;
36709;SDS011;22694;51.040;3.684;2022-12-18T04:40:51;14.43;;;11.57;;
36709;SDS011;22694;51.040;3.684;2022-12-18T04:43:17;13.98;;;11.70;;
36709;SDS011;22694;51.040;3.684;2022-12-18T04:45:42;15.15;;;11.15;;
36709;SDS011;22694;51.040;3.684;2022-12-18T04:48:08;15.27;;;11.77;;
36709;SDS011;22694;51.040;3.684;2022-12-18T04:50:33;15.20;;;11.30;;
36709;SDS011;22694;51.040;3.684;2022-12-18T04:52:59;17.58;;;12.40;;
36709;SDS011;22694;51.040;3.684;2022-12-18T04:55:25;14.35;;;11.30;;
36709;SDS011;22694;51.040;3.684;2022-12-18T04:57:50;15.40;;;11.70;;
36709;SDS011;22694;51.040;3.684;2022-12-18T05:00:16;13.48;;;10.57;;
36709;SDS011;22694;51.040;3.684;2022-12-18T05:02:42;13.05;;;10.77;;
36709;SDS011;22694;51.040;3.684;2022-12-18T05:05:08;15.27;;;10.68;;
36709;SDS011;22694;51.040;3.684;2022-12-18T05:07:34;12.52;;;10.85;;
36709;SDS011;22694;51.040;3.684;2022-12-18T05:09:59;14.05;;;10.68;;
36709;SDS011;22694;51.040;3.684;2022-12-18T05:12:25;14.27;;;10.48;;
36709;SDS011;22694;51.040;3.684;2022-12-18T05:14:50;13.75;;;10.30;;
36709;SDS011;22694;51.040;3.684;2022-12-18T05:17:16;13.02;;;10.27;;
36709;SDS011;22694;51.040;3.684;2022-12-18T05:19:42;12.80;;;9.60;;
36709;SDS011;22694;51.040;3.684;2022-12-18T05:22:08;11.35;;;9.07;;
36709;SDS011;22694;51.040;3.684;2022-12-18T05:24:34;13.70;;;10.07;;
36709;SDS011;22694;51.040;3.684;2022-12-18T05:27:00;12.65;;;9.80;;
36709;SDS011;22694;51.040;3.684;2022-12-18T05:29:26;13.82;;;10.02;;
36709;SDS011;22694;51.040;3.684;2022-12-18T05:31:52;13.13;;;9.95;;
36709;SDS011;22694;51.040;3.684;2022-12-18T05:34:17;12.98;;;10.50;;
36709;SDS011;22694;51.040;3.684;2022-12-18T05:36:43;13.25;;;10.50;;
36709;SDS011;22694;51.040;3.684;2022-12-18T05:39:09;13.65;;;10.20;;
36709;SDS011;22694;51.040;3.684;2022-12-18T05:41:34;13.55;;;10.63;;
36709;SDS011;22694;51.040;3.684;2022-12-18T05:44:00;12.88;;;10.18;;
36709;SDS011;22694;51.040;3.684;2022-12-18T05:46:25;13.40;;;10.32;;
36709;SDS011;22694;51.040;3.684;2022-12-18T05:48:51;14.77;;;10.38;;
36709;SDS011;22694;51.040;3.684;2022-12-18T05:51:18;12.30;;;9.77;;
36709;SDS011;22694;51.040;3.684;2022-12-18T05:53:46;12.07;;;9.30;;
36709;SDS011;22694;51.040;3.684;2022-12-18T05:56:14;12.48;;;9.38;;
36709;SDS011;22694;51.040;3.684;2022-12-18T05:58:41;13.32;;;10.10;;
36709;SDS011;22694;51.040;3.684;2022-12-18T06:01:12;14.45;;;10.02;;
36709;SDS011;22694;51.040;3.684;2022-12-18T06:03:40;11.55;;;9.60;;
36709;SDS011;22694;51.040;3.684;2022-12-18T06:06:13;10.40;;;8.35;;
36709;SDS011;22694;51.040;3.684;2022-12-18T06:08:39;11.52;;;9.20;;
36709;SDS011;22694;51.040;3.684;2022-12-18T06:11:05;13.95;;;9.05;;
36709;SDS011;22694;51.040;3.684;2022-12-18T06:13:31;10.27;;;8.75;;
36709;SDS011;22694;51.040;3.684;2022-12-18T06:15:57;10.88;;;8.77;;
36709;SDS011;22694;51.040;3.684;2022-12-18T06:18:22;11.43;;;8.88;;
36709;SDS011;22694;51.040;3.684;2022-12-18T06:20:55;13.48;;;9.85;;
36709;SDS011;22694;51.040;3.684;2022-12-18T06:23:21;11.07;;;9.07;;
36709;SDS011;22694;51.040;3.684;2022-12-18T06:25:47;12.07;;;9.07;;
36709;SDS011;22694;51.040;3.684;2022-12-18T06:28:13;12.70;;;9.57;;
36709;SDS011;22694;51.040;3.684;2022-12-18T06:30:38;12.50;;;9.32;;
36709;SDS011;22694;51.040;3.684;2022-12-18T06:33:04;10.32;;;8.35;;
36709;SDS011;22694;51.040;3.684;2022-12-18T06:35:31;12.15;;;9.52;;
36709;SDS011;22694;51.040;3.684;2022-12-18T06:37:57;12.18;;;9.40;;
36709;SDS011;22694;51.040;3.684;2022-12-18T06:40:22;10.95;;;8.80;;
36709;SDS011;22694;51.040;3.684;2022-12-18T06:42:48;10.75;;;8.50;;
36709;SDS011;22694;51.040;3.684;2022-12-18T06:45:14;11.25;;;8.90;;
36709;SDS011;22694;51.040;3.684;2022-12-18T06:47:39;11.15;;;8.48;;
36709;SDS011;22694;51.040;3.684;2022-12-18T06:50:05;10.40;;;8.52;;
36709;SDS011;22694;51.040;3.684;2022-12-18T06:52:32;10.63;;;8.43;;
36709;SDS011;22694;51.040;3.684;2022-12-18T06:54:59;12.50;;;8.98;;
36709;SDS011;22694;51.040;3.684;2022-12-18T06:57:25;12.73;;;9.25;;
36709;SDS011;22694;51.040;3.684;2022-12-18T06:59:51;9.60;;;8.27;;
36709;SDS011;22694;51.040;3.684;2022-12-18T07:02:17;10.57;;;8.07;;
36709;SDS011;22694;51.040;3.684;2022-12-18T07:04:42;11.10;;;8.57;;
36709;SDS011;22694;51.040;3.684;2022-12-18T07:07:08;10.95;;;8.45;;
36709;SDS011;22694;51.040;3.684;2022-12-18T07:09:34;10.52;;;8.23;;
36709;SDS011;22694;51.040;3.684;2022-12-18T07:11:59;9.98;;;7.75;;
36709;SDS011;22694;51.040;3.684;2022-12-18T07:14:25;10.27;;;7.95;;
36709;SDS011;22694;51.040;3.684;2022-12-18T07:16:50;10.13;;;8.15;;
36709;SDS011;22694;51.040;3.684;2022-12-18T07:19:16;13.23;;;8.60;;
36709;SDS011;22694;51.040;3.684;2022-12-18T07:21:42;10.55;;;8.00;;
36709;SDS011;22694;51.040;3.684;2022-12-18T07:24:07;10.30;;;7.78;;
36709;SDS011;22694;51.040;3.684;2022-12-18T07:26:33;10.40;;;8.35;;
36709;SDS011;22694;51.040;3.684;2022-12-18T07:28:58;8.68;;;7.10;;
36709;SDS011;22694;51.040;3.684;2022-12-18T07:31:25;9.57;;;7.53;;
36709;SDS011;22694;51.040;3.684;2022-12-18T07:33:51;10.48;;;7.55;;
36709;SDS011;22694;51.040;3.684;2022-12-18T07:36:17;9.05;;;7.22;;
36709;SDS011;22694;51.040;3.684;2022-12-18T07:38:43;8.70;;;7.57;;
36709;SDS011;22694;51.040;3.684;2022-12-18T07:41:12;10.73;;;7.65;;
36709;SDS011;22694;51.040;3.684;2022-12-18T07:43:38;9.60;;;7.25;;
36709;SDS011;22694;51.040;3.684;2022-12-18T07:46:05;10.20;;;7.28;;
36709;SDS011;22694;51.040;3.684;2022-12-18T07:48:32;9.98;;;7.55;;
36709;SDS011;22694;51.040;3.684;2022-12-18T07:50:58;9.32;;;7.63;;
36709;SDS011;22694;51.040;3.684;2022-12-18T07:53:29;9.38;;;7.22;;
36709;SDS011;22694;51.040;3.684;2022-12-18T07:55:55;9.35;;;7.25;;
36709;SDS011;22694;51.040;3.684;2022-12-18T07:58:22;9.48;;;7.63;;
36709;SDS011;22694;51.040;3.684;2022-12-18T08:00:48;9.27;;;7.45;;
36709;SDS011;22694;51.040;3.684;2022-12-18T08:03:14;8.82;;;7.30;;
36709;SDS011;22694;51.040;3.684;2022-12-18T08:05:39;9.55;;;7.20;;
36709;SDS011;22694;51.040;3.684;2022-12-18T08:08:05;9.05;;;7.07;;
36709;SDS011;22694;51.040;3.684;2022-12-18T08:10:30;7.68;;;6.68;;
36709;SDS011;22694;51.040;3.684;2022-12-18T08:12:56;9.02;;;6.95;;
36709;SDS011;22694;51.040;3.684;2022-12-18T08:15:22;8.63;;;7.07;;
36709;SDS011;22694;51.040;3.684;2022-12-18T08:17:48;8.52;;;7.03;;
36709;SDS011;22694;51.040;3.684;2022-12-18T08:20:14;8.60;;;6.75;;
36709;SDS011;22694;51.040;3.684;2022-12-18T08:22:40;8.18;;;6.43;;
36709;SDS011;22694;51.040;3.684;2022-12-18T08:25:07;9.02;;;6.85;;
36709;SDS011;22694;51.040;3.684;2022-12-18T08:27:33;8.05;;;6.65;;
36709;SDS011;22694;51.040;3.684;2022-12-18T08:29:58;10.23;;;6.75;;
36709;SDS011;22694;51.040;3.684;2022-12-18T08:32:24;10.27;;;7.38;;
36709;SDS011;22694;51.040;3.684;2022-12-18T08:34:51;8.80;;;6.78;;
36709;SDS011;22694;51.040;3.684;2022-12-18T08:37:17;8.48;;;7.03;;
36709;SDS011;22694;51.040;3.684;2022-12-18T08:39:42;8.52;;;6.22;;
36709;SDS011;22694;51.040;3.684;2022-12-18T08:42:08;8.35;;;6.53;;
36709;SDS011;22694;51.040;3.684;2022-12-18T08:44:52;8.57;;;6.57;;
36709;SDS011;22694;51.040;3.684;2022-12-18T08:47:17;8.63;;;6.72;;
36709;SDS011;22694;51.040;3.684;2022-12-18T08:49:43;9.63;;;7.13;;
36709;SDS011;22694;51.040;3.684;2022-12-18T08:52:09;7.75;;;6.32;;
36709;SDS011;22694;51.040;3.684;2022-12-18T08:54:34;8.13;;;6.45;;
36709;SDS011;22694;51.040;3.684;2022-12-18T08:57:00;8.80;;;6.97;;
36709;SDS011;22694;51.040;3.684;2022-12-18T08:59:28;8.95;;;6.70;;
36709;SDS011;22694;51.040;3.684;2022-12-18T09:01:54;8.88;;;6.60;;
36709;SDS011;22694;51.040;3.684;2022-12-18T09:04:20;8.02;;;6.45;;
36709;SDS011;22694;51.040;3.684;2022-12-18T09:06:46;8.50;;;6.55;;
36709;SDS011;22694;51.040;3.684;2022-12-18T09:09:12;8.77;;;6.47;;
36709;SDS011;22694;51.040;3.684;2022-12-18T09:11:37;7.43;;;5.68;;
36709;SDS011;22694;51.040;3.684;2022-12-18T09:14:03;7.15;;;5.10;;
36709;SDS011;22694;51.040;3.684;2022-12-18T09:16:29;9.40;;;6.30;;
36709;SDS011;22694;51.040;3.684;2022-12-18T09:18:55;9.10;;;6.15;;
36709;SDS011;22694;51.040;3.684;2022-12-18T09:21:24;9.27;;;6.15;;
36709;SDS011;22694;51.040;3.684;2022-12-18T09:23:53;7.07;;;5.95;;
36709;SDS011;22694;51.040;3.684;2022-12-18T09:26:19;8.10;;;6.35;;
36709;SDS011;22694;51.040;3.684;2022-12-18T09:28:46;8.65;;;5.90;;
36709;SDS011;22694;51.040;3.684;2022-12-18T09:31:12;7.72;;;6.30;;
36709;SDS011;22694;51.040;3.684;2022-12-18T09:33:39;7.32;;;6.05;;
36709;SDS011;22694;51.040;3.684;2022-12-18T09:36:05;9.32;;;6.78;;
36709;SDS011;22694;51.040;3.684;2022-12-18T09:38:33;8.35;;;6.05;;
36709;SDS011;22694;51.040;3.684;2022-12-18T09:41:00;8.20;;;6.22;;
36709;SDS011;22694;51.040;3.684;2022-12-18T09:43:34;10.00;;;6.57;;
36709;SDS011;22694;51.040;3.684;2022-12-18T09:46:10;8.88;;;6.28;;
36709;SDS011;22694;51.040;3.684;2022-12-18T09:48:42;7.38;;;5.78;;
36709;SDS011;22694;51.040;3.684;2022-12-18T09:53:44;6.55;;;5.55;;
36709;SDS011;22694;51.040;3.684;2022-12-18T09:56:16;7.60;;;5.20;;
36709;SDS011;22694;51.040;3.684;2022-12-18T09:58:49;6.63;;;5.55;;
36709;SDS011;22694;51.040;3.684;2022-12-18T10:01:22;7.70;;;6.28;;
36709;SDS011;22694;51.040;3.684;2022-12-18T10:03:49;7.05;;;5.97;;
36709;SDS011;22694;51.040;3.684;2022-12-18T10:17:13;7.10;;;5.80;;
36709;SDS011;22694;51.040;3.684;2022-12-18T10:19:51;7.45;;;5.90;;
36709;SDS011;22694;51.040;3.684;2022-12-18T10:25:38;7.40;;;5.72;;
36709;SDS011;22694;51.040;3.684;2022-12-18T10:28:21;8.63;;;6.63;;
36709;SDS011;22694;51.040;3.684;2022-12-18T10:30:48;7.97;;;5.80;;
36709;SDS011;22694;51.040;3.684;2022-12-18T10:33:15;7.03;;;6.22;;
36709;SDS011;22694;51.040;3.684;2022-12-18T10:35:42;7.43;;;5.38;;
36709;SDS011;22694;51.040;3.684;2022-12-18T10:40:48;6.32;;;5.68;;
36709;SDS011;22694;51.040;3.684;2022-12-18T10:48:26;7.28;;;6.20;;
36709;SDS011;22694;51.040;3.684;2022-12-18T10:50:52;7.03;;;5.78;;
36709;SDS011;22694;51.040;3.684;2022-12-18T10:53:20;7.00;;;6.10;;
36709;SDS011;22694;51.040;3.684;2022-12-18T10:55:52;7.75;;;6.68;;
36709;SDS011;22694;51.040;3.684;2022-12-18T10:58:24;6.82;;;5.90;;
36709;SDS011;22694;51.040;3.684;2022-12-18T11:03:43;7.55;;;5.45;;
36709;SDS011;22694;51.040;3.684;2022-12-18T11:06:19;7.22;;;5.70;;
36709;SDS011;22694;51.040;3.684;2022-12-18T11:09:01;8.27;;;6.25;;
36709;SDS011;22694;51.040;3.684;2022-12-18T11:11:31;7.07;;;5.63;;
36709;SDS011;22694;51.040;3.684;2022-12-18T11:17:24;7.30;;;6.20;;
36709;SDS011;22694;51.040;3.684;2022-12-18T11:20:00;6.82;;;5.80;;
36709;SDS011;22694;51.040;3.684;2022-12-18T11:27:52;7.30;;;6.07;;
36709;SDS011;22694;51.040;3.684;2022-12-18T11:30:38;6.70;;;5.53;;
36709;SDS011;22694;51.040;3.684;2022-12-18T11:38:20;7.18;;;5.70;;
36709;SDS011;22694;51.040;3.684;2022-12-18T11:41:36;6.80;;;5.30;;
36709;SDS011;22694;51.040;3.684;2022-12-18T11:44:16;6.05;;;5.45;;
36709;SDS011;22694;51.040;3.684;2022-12-18T11:47:00;6.03;;;5.35;;
36709;SDS011;22694;51.040;3.684;2022-12-18T11:49:34;6.00;;;5.13;;
36709;SDS011;22694;51.040;3.684;2022-12-18T11:54:41;6.55;;;5.60;;
36709;SDS011;22694;51.040;3.684;2022-12-18T11:57:10;6.43;;;5.10;;
36709;SDS011;22694;51.040;3.684;2022-12-18T11:59:44;6.38;;;5.57;;
36709;SDS011;22694;51.040;3.684;2022-12-18T12:07:21;5.93;;;4.95;;
36709;SDS011;22694;51.040;3.684;2022-12-18T12:13:13;6.15;;;5.20;;
36709;SDS011;22694;51.040;3.684;2022-12-18T12:18:48;5.72;;;5.05;;
36709;SDS011;22694;51.040;3.684;2022-12-18T12:21:46;6.88;;;5.72;;
36709;SDS011;22694;51.040;3.684;2022-12-18T12:24:27;6.68;;;5.22;;
36709;SDS011;22694;51.040;3.684;2022-12-18T12:27:08;9.00;;;5.00;;
36709;SDS011;22694;51.040;3.684;2022-12-18T12:37:41;6.68;;;4.85;;
36709;SDS011;22694;51.040;3.684;2022-12-18T12:40:31;5.57;;;4.15;;
36709;SDS011;22694;51.040;3.684;2022-12-18T12:43:15;5.97;;;4.07;;
36709;SDS011;22694;51.040;3.684;2022-12-18T12:51:16;7.22;;;5.65;;
36709;SDS011;22694;51.040;3.684;2022-12-18T12:53:48;7.00;;;5.85;;
36709;SDS011;22694;51.040;3.684;2022-12-18T12:56:15;9.60;;;6.70;;
36709;SDS011;22694;51.040;3.684;2022-12-18T13:01:28;7.53;;;6.30;;
36709;SDS011;22694;51.040;3.684;2022-12-18T13:04:23;8.73;;;6.97;;
36709;SDS011;22694;51.040;3.684;2022-12-18T13:06:54;7.90;;;6.50;;
36709;SDS011;22694;51.040;3.684;2022-12-18T13:09:32;9.30;;;7.22;;
36709;SDS011;22694;51.040;3.684;2022-12-18T13:12:03;8.60;;;7.03;;
36709;SDS011;22694;51.040;3.684;2022-12-18T13:14:52;8.70;;;6.57;;
36709;SDS011;22694;51.040;3.684;2022-12-18T13:22:23;8.20;;;6.82;;
36709;SDS011;22694;51.040;3.684;2022-12-18T13:28:09;9.52;;;7.78;;
36709;SDS011;22694;51.040;3.684;2022-12-18T13:35:40;13.00;;;8.10;;
36709;SDS011;22694;51.040;3.684;2022-12-18T13:38:55;10.18;;;8.00;;
36709;SDS011;22694;51.040;3.684;2022-12-18T13:43:43;8.73;;;7.22;;
36709;SDS011;22694;51.040;3.684;2022-12-18T13:49:03;9.65;;;7.97;;
36709;SDS011;22694;51.040;3.684;2022-12-18T13:51:44;10.68;;;8.40;;
36709;SDS011;22694;51.040;3.684;2022-12-18T13:57:02;9.38;;;7.50;;
36709;SDS011;22694;51.040;3.684;2022-12-18T13:59:34;6.90;;;5.72;;
36709;SDS011;22694;51.040;3.684;2022-12-18T14:02:07;11.18;;;8.27;;
36709;SDS011;22694;51.040;3.684;2022-12-18T14:04:39;10.40;;;7.90;;
36709;SDS011;22694;51.040;3.684;2022-12-18T14:07:10;11.32;;;7.93;;
36709;SDS011;22694;51.040;3.684;2022-12-18T14:10:04;9.98;;;8.35;;
36709;SDS011;22694;51.040;3.684;2022-12-18T14:12:37;11.65;;;8.73;;
36709;SDS011;22694;51.040;3.684;2022-12-18T14:20:47;10.88;;;8.43;;
36709;SDS011;22694;51.040;3.684;2022-12-18T14:28:54;9.43;;;8.13;;
36709;SDS011;22694;51.040;3.684;2022-12-18T14:31:27;7.85;;;6.00;;
36709;SDS011;22694;51.040;3.684;2022-12-18T14:33:54;9.98;;;6.55;;
36709;SDS011;22694;51.040;3.684;2022-12-18T14:36:21;11.13;;;9.13;;
36709;SDS011;22694;51.040;3.684;2022-12-18T14:38:54;10.13;;;8.35;;
36709;SDS011;22694;51.040;3.684;2022-12-18T14:41:21;10.38;;;8.65;;
36709;SDS011;22694;51.040;3.684;2022-12-18T14:43:48;11.30;;;9.05;;
36709;SDS011;22694;51.040;3.684;2022-12-18T14:49:00;11.90;;;9.55;;
36709;SDS011;22694;51.040;3.684;2022-12-18T14:54:14;12.80;;;9.60;;
36709;SDS011;22694;51.040;3.684;2022-12-18T14:56:46;12.02;;;9.32;;
36709;SDS011;22694;51.040;3.684;2022-12-18T14:59:25;11.75;;;9.35;;
36709;SDS011;22694;51.040;3.684;2022-12-18T15:05:26;12.18;;;9.70;;
36709;SDS011;22694;51.040;3.684;2022-12-18T15:07:56;11.15;;;8.95;;
36709;SDS011;22694;51.040;3.684;2022-12-18T15:10:24;12.30;;;9.82;;
36709;SDS011;22694;51.040;3.684;2022-12-18T15:18:02;12.45;;;9.35;;
36709;SDS011;22694;51.040;3.684;2022-12-18T15:20:32;14.23;;;10.00;;
36709;SDS011;22694;51.040;3.684;2022-12-18T15:26:11;10.57;;;9.05;;
36709;SDS011;22694;51.040;3.684;2022-12-18T15:28:49;15.82;;;10.25;;
36709;SDS011;22694;51.040;3.684;2022-12-18T15:36:10;12.95;;;9.80;;
36709;SDS011;22694;51.040;3.684;2022-12-18T15:38:40;13.15;;;10.02;;
36709;SDS011;22694;51.040;3.684;2022-12-18T15:41:05;12.85;;;10.00;;
36709;SDS011;22694;51.040;3.684;2022-12-18T15:43:38;12.48;;;9.93;;
36709;SDS011;22694;51.040;3.684;2022-12-18T15:46:09;13.00;;;10.48;;
36709;SDS011;22694;51.040;3.684;2022-12-18T15:48:44;13.80;;;10.68;;
36709;SDS011;22694;51.040;3.684;2022-12-18T15:51:21;12.63;;;10.30;;
36709;SDS011;22694;51.040;3.684;2022-12-18T15:53:50;13.00;;;10.23;;
36709;SDS011;22694;51.040;3.684;2022-12-18T15:56:19;13.30;;;10.00;;
36709;SDS011;22694;51.040;3.684;2022-12-18T15:59:10;12.93;;;9.77;;
36709;SDS011;22694;51.040;3.684;2022-12-18T16:01:38;11.85;;;9.55;;
36709;SDS011;22694;51.040;3.684;2022-12-18T16:04:04;12.82;;;10.10;;
36709;SDS011;22694;51.040;3.684;2022-12-18T16:06:30;13.50;;;10.02;;
36709;SDS011;22694;51.040;3.684;2022-12-18T16:08:56;12.50;;;9.27;;
36709;SDS011;22694;51.040;3.684;2022-12-18T16:11:28;10.50;;;7.43;;
36709;SDS011;22694;51.040;3.684;2022-12-18T16:16:45;9.90;;;7.70;;
36709;SDS011;22694;51.040;3.684;2022-12-18T16:19:12;10.77;;;8.00;;
36709;SDS011;22694;51.040;3.684;2022-12-18T16:21:37;11.82;;;8.38;;
36709;SDS011;22694;51.040;3.684;2022-12-18T16:24:03;11.85;;;9.10;;
36709;SDS011;22694;51.040;3.684;2022-12-18T16:26:29;13.15;;;8.55;;
36709;SDS011;22694;51.040;3.684;2022-12-18T16:28:54;11.60;;;9.32;;
36709;SDS011;22694;51.040;3.684;2022-12-18T16:31:20;12.60;;;8.70;;
36709;SDS011;22694;51.040;3.684;2022-12-18T16:33:45;10.35;;;8.27;;
36709;SDS011;22694;51.040;3.684;2022-12-18T16:36:11;16.02;;;11.45;;
36709;SDS011;22694;51.040;3.684;2022-12-18T16:38:37;14.38;;;11.05;;
36709;SDS011;22694;51.040;3.684;2022-12-18T16:41:06;14.55;;;11.30;;
36709;SDS011;22694;51.040;3.684;2022-12-18T16:44:01;14.93;;;10.50;;
36709;SDS011;22694;51.040;3.684;2022-12-18T16:46:27;15.18;;;10.35;;
36709;SDS011;22694;51.040;3.684;2022-12-18T16:48:53;14.13;;;10.50;;
36709;SDS011;22694;51.040;3.684;2022-12-18T16:51:19;13.23;;;10.70;;
36709;SDS011;22694;51.040;3.684;2022-12-18T16:53:44;14.05;;;10.77;;
36709;SDS011;22694;51.040;3.684;2022-12-18T16:56:10;13.60;;;10.80;;
36709;SDS011;22694;51.040;3.684;2022-12-18T16:58:35;12.77;;;10.57;;
36709;SDS011;22694;51.040;3.684;2022-12-18T17:01:06;13.07;;;10.10;;
36709;SDS011;22694;51.040;3.684;2022-12-18T17:03:33;12.83;;;10.30;;
36709;SDS011;22694;51.040;3.684;2022-12-18T17:06:05;14.18;;;10.32;;
36709;SDS011;22694;51.040;3.684;2022-12-18T17:08:32;14.73;;;10.05;;
36709;SDS011;22694;51.040;3.684;2022-12-18T17:11:05;14.52;;;10.65;;
36709;SDS011;22694;51.040;3.684;2022-12-18T17:13:32;11.00;;;8.18;;
36709;SDS011;22694;51.040;3.684;2022-12-18T17:16:02;10.85;;;7.88;;
36709;SDS011;22694;51.040;3.684;2022-12-18T17:18:28;12.02;;;7.25;;